In Rescue
 
Open Full Screen Window  High Contrast Mode
January 28, 2020 11:53 PM CST
Weather Information
Wind Direction
  ---
Wind Speed
  00 kt (0 mph)
Wind Gust
  00 kt (0 mph)
Altimeter
30.16 in
Visibility
10 SM
Temperature
-08° C
18° F
Dewpoint
-10° C
14° F
Humidity
86%
1hr Rain Fall
00.00 in.
24hr Rain Fall
00.00 in.
Sky Condition
Overcast @ 800 ft
IFR

METAR K9MN 290553Z AUTO 00000KT 10SM OVC008 M08/M10 A3016 RMK AO1 T10771096 11075 21085 410561085

FAA Disclaimer: The data displayed is for advisory purposes only and is not to be used for flight planning or operations.